sensor_id;sensor_type;location;lat;lon;timestamp;pressure;altitude;pressure_sealevel;temperature;humidity
42887;BME280;29032;56.028;92.904;2024-02-16T00:01:02;99206.94;;;-21.63;34.11
42887;BME280;29032;56.028;92.904;2024-02-16T00:06:04;99216.34;;;-21.66;33.22
42887;BME280;29032;56.028;92.904;2024-02-16T00:11:08;99222.00;;;-21.67;33.71
42887;BME280;29032;56.028;92.904;2024-02-16T00:16:10;99219.88;;;-21.77;33.07
42887;BME280;29032;56.028;92.904;2024-02-16T00:21:12;99228.09;;;-21.98;33.53
42887;BME280;29032;56.028;92.904;2024-02-16T00:26:16;99220.97;;;-22.10;33.15
42887;BME280;29032;56.028;92.904;2024-02-16T00:31:18;99225.94;;;-22.52;32.98
42887;BME280;29032;56.028;92.904;2024-02-16T00:36:20;99235.47;;;-22.79;33.40
42887;BME280;29032;56.028;92.904;2024-02-16T00:41:24;99244.34;;;-23.00;33.64
42887;BME280;29032;56.028;92.904;2024-02-16T00:46:26;99242.81;;;-23.01;34.32
42887;BME280;29032;56.028;92.904;2024-02-16T00:51:28;99242.44;;;-22.87;33.77
42887;BME280;29032;56.028;92.904;2024-02-16T00:56:32;99262.56;;;-22.98;34.03
42887;BME280;29032;56.028;92.904;2024-02-16T01:01:34;99257.59;;;-22.87;33.77
42887;BME280;29032;56.028;92.904;2024-02-16T01:06:36;99265.72;;;-22.80;34.09
42887;BME280;29032;56.028;92.904;2024-02-16T01:11:41;99266.63;;;-22.76;33.55
42887;BME280;29032;56.028;92.904;2024-02-16T01:16:43;99273.53;;;-22.72;33.49
42887;BME280;29032;56.028;92.904;2024-02-16T01:21:45;99279.09;;;-22.77;33.17
42887;BME280;29032;56.028;92.904;2024-02-16T01:26:49;99271.75;;;-23.20;33.32
42887;BME280;29032;56.028;92.904;2024-02-16T01:31:51;99272.66;;;-23.40;33.73
42887;BME280;29032;56.028;92.904;2024-02-16T01:36:53;99272.66;;;-23.65;34.24
42887;BME280;29032;56.028;92.904;2024-02-16T01:41:57;99272.56;;;-23.81;34.31
42887;BME280;29032;56.028;92.904;2024-02-16T01:46:59;99273.75;;;-24.02;34.50
42887;BME280;29032;56.028;92.904;2024-02-16T01:52:01;99278.56;;;-24.17;34.72
42887;BME280;29032;56.028;92.904;2024-02-16T01:57:05;99289.00;;;-24.20;35.52
42887;BME280;29032;56.028;92.904;2024-02-16T02:02:08;99299.19;;;-24.10;34.55
42887;BME280;29032;56.028;92.904;2024-02-16T02:07:14;99302.38;;;-24.05;35.13
42887;BME280;29032;56.028;92.904;2024-02-16T02:12:17;99311.41;;;-24.06;35.01
42887;BME280;29032;56.028;92.904;2024-02-16T02:17:19;99310.94;;;-24.20;35.25
42887;BME280;29032;56.028;92.904;2024-02-16T02:22:23;99318.41;;;-24.22;35.22
42887;BME280;29032;56.028;92.904;2024-02-16T02:27:25;99320.22;;;-24.14;35.39
42887;BME280;29032;56.028;92.904;2024-02-16T02:32:27;99315.63;;;-23.92;35.54
42887;BME280;29032;56.028;92.904;2024-02-16T02:37:31;99329.59;;;-23.46;35.66
42887;BME280;29032;56.028;92.904;2024-02-16T02:42:33;99318.56;;;-23.24;34.61
42887;BME280;29032;56.028;92.904;2024-02-16T02:47:35;99325.16;;;-23.06;37.79
42887;BME280;29032;56.028;92.904;2024-02-16T02:52:39;99307.28;;;-22.97;37.84
42887;BME280;29032;56.028;92.904;2024-02-16T02:57:41;99325.69;;;-22.88;38.59
42887;BME280;29032;56.028;92.904;2024-02-16T03:02:43;99335.66;;;-22.57;37.21
42887;BME280;29032;56.028;92.904;2024-02-16T03:07:47;99324.31;;;-22.29;37.78
42887;BME280;29032;56.028;92.904;2024-02-16T03:12:49;99325.59;;;-22.23;35.16
42887;BME280;29032;56.028;92.904;2024-02-16T03:17:51;99328.78;;;-22.46;34.73
42887;BME280;29032;56.028;92.904;2024-02-16T03:22:56;99324.66;;;-22.71;35.27
42887;BME280;29032;56.028;92.904;2024-02-16T03:27:58;99332.63;;;-22.71;34.51
42887;BME280;29032;56.028;92.904;2024-02-16T03:33:00;99344.34;;;-22.72;34.92
42887;BME280;29032;56.028;92.904;2024-02-16T03:38:04;99349.38;;;-22.67;34.88
42887;BME280;29032;56.028;92.904;2024-02-16T03:43:06;99339.72;;;-22.75;34.59
42887;BME280;29032;56.028;92.904;2024-02-16T03:48:08;99340.16;;;-22.85;35.27
42887;BME280;29032;56.028;92.904;2024-02-16T03:53:12;99353.44;;;-22.98;35.43
42887;BME280;29032;56.028;92.904;2024-02-16T03:58:14;99352.31;;;-23.09;35.55
42887;BME280;29032;56.028;92.904;2024-02-16T04:03:17;99362.03;;;-23.13;35.70
42887;BME280;29032;56.028;92.904;2024-02-16T04:08:20;99372.63;;;-23.25;35.96
42887;BME280;29032;56.028;92.904;2024-02-16T04:13:23;99369.75;;;-23.20;36.00
42887;BME280;29032;56.028;92.904;2024-02-16T04:18:25;99368.09;;;-23.00;35.87
42887;BME280;29032;56.028;92.904;2024-02-16T04:23:28;99369.53;;;-22.90;35.56
42887;BME280;29032;56.028;92.904;2024-02-16T04:28:31;99369.00;;;-22.84;35.35
42887;BME280;29032;56.028;92.904;2024-02-16T04:33:33;99375.06;;;-22.83;35.53
42887;BME280;29032;56.028;92.904;2024-02-16T04:38:36;99378.34;;;-22.74;34.83
42887;BME280;29032;56.028;92.904;2024-02-16T04:43:39;99374.81;;;-22.78;35.14
42887;BME280;29032;56.028;92.904;2024-02-16T04:48:41;99382.13;;;-22.75;35.47
42887;BME280;29032;56.028;92.904;2024-02-16T04:53:44;99376.03;;;-22.76;35.49
42887;BME280;29032;56.028;92.904;2024-02-16T04:58:47;99388.28;;;-22.71;37.43
42887;BME280;29032;56.028;92.904;2024-02-16T05:03:49;99394.44;;;-22.55;37.00
42887;BME280;29032;56.028;92.904;2024-02-16T05:08:52;99396.59;;;-22.32;37.77
42887;BME280;29032;56.028;92.904;2024-02-16T05:13:54;99406.41;;;-21.93;38.03
42887;BME280;29032;56.028;92.904;2024-02-16T05:18:57;99399.47;;;-21.69;37.14
42887;BME280;29032;56.028;92.904;2024-02-16T05:24:00;99406.22;;;-21.72;37.49
42887;BME280;29032;56.028;92.904;2024-02-16T05:29:02;99401.47;;;-21.78;36.84
42887;BME280;29032;56.028;92.904;2024-02-16T05:34:04;99410.66;;;-21.60;37.16
42887;BME280;29032;56.028;92.904;2024-02-16T05:39:08;99417.63;;;-21.56;39.08
42887;BME280;29032;56.028;92.904;2024-02-16T05:44:10;99420.25;;;-21.28;38.13
42887;BME280;29032;56.028;92.904;2024-02-16T05:49:13;99426.44;;;-20.92;37.78
42887;BME280;29032;56.028;92.904;2024-02-16T05:54:16;99429.31;;;-20.65;36.56
42887;BME280;29032;56.028;92.904;2024-02-16T05:59:18;99433.78;;;-20.34;35.41
42887;BME280;29032;56.028;92.904;2024-02-16T06:04:20;99440.28;;;-20.32;35.16
42887;BME280;29032;56.028;92.904;2024-02-16T06:09:24;99430.59;;;-20.40;35.95
42887;BME280;29032;56.028;92.904;2024-02-16T06:14:26;99441.13;;;-20.47;35.77
42887;BME280;29032;56.028;92.904;2024-02-16T06:19:28;99454.97;;;-20.38;37.84
42887;BME280;29032;56.028;92.904;2024-02-16T06:24:50;99454.56;;;-20.05;35.58
42887;BME280;29032;56.028;92.904;2024-02-16T06:29:53;99451.13;;;-20.05;37.50
42887;BME280;29032;56.028;92.904;2024-02-16T06:34:55;99458.38;;;-19.87;37.59
42887;BME280;29032;56.028;92.904;2024-02-16T06:39:58;99448.19;;;-19.62;34.75
42887;BME280;29032;56.028;92.904;2024-02-16T06:45:01;99450.44;;;-19.64;35.66
42887;BME280;29032;56.028;92.904;2024-02-16T06:50:03;99445.81;;;-19.67;34.48
42887;BME280;29032;56.028;92.904;2024-02-16T06:55:07;99454.22;;;-19.65;33.51
42887;BME280;29032;56.028;92.904;2024-02-16T07:00:11;99457.09;;;-19.54;33.77
42887;BME280;29032;56.028;92.904;2024-02-16T07:05:13;99453.91;;;-19.40;33.13
42887;BME280;29032;56.028;92.904;2024-02-16T07:10:17;99459.38;;;-19.33;32.82
42887;BME280;29032;56.028;92.904;2024-02-16T07:15:19;99467.31;;;-19.37;32.30
42887;BME280;29032;56.028;92.904;2024-02-16T07:20:21;99470.06;;;-19.52;31.38
42887;BME280;29032;56.028;92.904;2024-02-16T07:25:25;99479.53;;;-19.55;31.50
42887;BME280;29032;56.028;92.904;2024-02-16T07:30:27;99475.03;;;-19.51;32.45
42887;BME280;29032;56.028;92.904;2024-02-16T07:35:29;99482.31;;;-19.28;31.83
42887;BME280;29032;56.028;92.904;2024-02-16T07:40:33;99473.88;;;-18.62;31.10
42887;BME280;29032;56.028;92.904;2024-02-16T07:45:35;99476.88;;;-18.40;30.40
42887;BME280;29032;56.028;92.904;2024-02-16T07:50:37;99483.88;;;-18.59;29.53
42887;BME280;29032;56.028;92.904;2024-02-16T07:55:41;99476.00;;;-18.75;29.97
42887;BME280;29032;56.028;92.904;2024-02-16T08:00:43;99493.34;;;-18.38;30.13
42887;BME280;29032;56.028;92.904;2024-02-16T08:05:45;99495.69;;;-18.33;28.93
42887;BME280;29032;56.028;92.904;2024-02-16T08:10:49;99501.16;;;-18.49;29.51
42887;BME280;29032;56.028;92.904;2024-02-16T08:15:51;99498.34;;;-18.33;28.96
42887;BME280;29032;56.028;92.904;2024-02-16T08:21:11;99517.47;;;-18.31;29.58
42887;BME280;29032;56.028;92.904;2024-02-16T08:26:15;99512.44;;;-18.36;29.21
42887;BME280;29032;56.028;92.904;2024-02-16T08:31:18;99516.84;;;-17.95;29.49
42887;BME280;29032;56.028;92.904;2024-02-16T08:36:20;99512.44;;;-18.10;29.54
42887;BME280;29032;56.028;92.904;2024-02-16T08:41:24;99518.50;;;-18.39;29.97
42887;BME280;29032;56.028;92.904;2024-02-16T08:51:47;99530.06;;;-19.20;29.88
42887;BME280;29032;56.028;92.904;2024-02-16T08:56:51;99545.72;;;-19.38;30.42
42887;BME280;29032;56.028;92.904;2024-02-16T09:01:53;99524.31;;;-19.61;29.45
42887;BME280;29032;56.028;92.904;2024-02-16T09:06:55;99540.13;;;-19.52;30.88
42887;BME280;29032;56.028;92.904;2024-02-16T09:11:59;99538.63;;;-19.49;30.70
42887;BME280;29032;56.028;92.904;2024-02-16T09:17:01;99558.91;;;-19.45;30.94
42887;BME280;29032;56.028;92.904;2024-02-16T09:22:03;99565.06;;;-19.60;30.12
42887;BME280;29032;56.028;92.904;2024-02-16T09:27:07;99565.88;;;-19.75;30.75
42887;BME280;29032;56.028;92.904;2024-02-16T09:32:09;99563.34;;;-19.88;31.23
42887;BME280;29032;56.028;92.904;2024-02-16T09:37:11;99571.59;;;-19.93;30.97
42887;BME280;29032;56.028;92.904;2024-02-16T09:42:15;99567.56;;;-20.02;30.40
42887;BME280;29032;56.028;92.904;2024-02-16T09:47:17;99567.66;;;-19.99;31.37
42887;BME280;29032;56.028;92.904;2024-02-16T09:52:22;99581.94;;;-20.23;31.45
42887;BME280;29032;56.028;92.904;2024-02-16T09:57:27;99589.56;;;-20.37;31.24
42887;BME280;29032;56.028;92.904;2024-02-16T10:02:29;99601.75;;;-20.36;31.85
42887;BME280;29032;56.028;92.904;2024-02-16T10:07:41;99602.88;;;-20.21;31.19
42887;BME280;29032;56.028;92.904;2024-02-16T10:12:44;99620.28;;;-20.24;32.01
42887;BME280;29032;56.028;92.904;2024-02-16T10:17:57;99620.97;;;-20.27;32.38
42887;BME280;29032;56.028;92.904;2024-02-16T10:23:04;99623.03;;;-20.36;32.25
42887;BME280;29032;56.028;92.904;2024-02-16T10:28:09;99638.13;;;-20.40;32.22
42887;BME280;29032;56.028;92.904;2024-02-16T10:33:12;99651.97;;;-20.34;32.75
42887;BME280;29032;56.028;92.904;2024-02-16T10:38:14;99649.31;;;-20.19;31.55
42887;BME280;29032;56.028;92.904;2024-02-16T10:43:18;99650.50;;;-20.32;32.89
42887;BME280;29032;56.028;92.904;2024-02-16T10:53:42;99681.41;;;-20.43;32.81
42887;BME280;29032;56.028;92.904;2024-02-16T10:58:48;99686.03;;;-20.40;33.22
42887;BME280;29032;56.028;92.904;2024-02-16T11:04:00;99691.13;;;-20.35;32.33
42887;BME280;29032;56.028;92.904;2024-02-16T11:09:03;99717.19;;;-20.41;31.85
42887;BME280;29032;56.028;92.904;2024-02-16T11:14:15;99729.38;;;-20.39;32.25
42887;BME280;29032;56.028;92.904;2024-02-16T11:19:17;99738.22;;;-20.51;31.67
42887;BME280;29032;56.028;92.904;2024-02-16T11:24:44;99750.34;;;-20.66;31.97
42887;BME280;29032;56.028;92.904;2024-02-16T11:29:48;99759.78;;;-20.68;32.17
42887;BME280;29032;56.028;92.904;2024-02-16T11:34:50;99764.00;;;-20.80;31.81
42887;BME280;29032;56.028;92.904;2024-02-16T11:39:55;99769.22;;;-20.83;31.51
42887;BME280;29032;56.028;92.904;2024-02-16T11:44:59;99779.09;;;-20.84;32.41
42887;BME280;29032;56.028;92.904;2024-02-16T11:50:02;99791.72;;;-20.81;31.27
42887;BME280;29032;56.028;92.904;2024-02-16T11:55:08;99794.41;;;-20.93;32.34
42887;BME280;29032;56.028;92.904;2024-02-16T12:00:13;99806.03;;;-20.98;32.82
42887;BME280;29032;56.028;92.904;2024-02-16T12:05:15;99823.88;;;-20.98;32.36
42887;BME280;29032;56.028;92.904;2024-02-16T12:10:17;99834.94;;;-20.96;32.92
42887;BME280;29032;56.028;92.904;2024-02-16T12:15:21;99845.34;;;-21.03;32.44
42887;BME280;29032;56.028;92.904;2024-02-16T12:20:23;99847.34;;;-21.12;33.02
42887;BME280;29032;56.028;92.904;2024-02-16T12:25:26;99854.66;;;-21.21;32.86
42887;BME280;29032;56.028;92.904;2024-02-16T12:30:29;99873.34;;;-21.30;32.64
42887;BME280;29032;56.028;92.904;2024-02-16T12:35:34;99875.69;;;-21.29;33.77
42887;BME280;29032;56.028;92.904;2024-02-16T12:40:36;99890.34;;;-21.43;32.79
42887;BME280;29032;56.028;92.904;2024-02-16T12:45:39;99906.63;;;-21.45;33.29
42887;BME280;29032;56.028;92.904;2024-02-16T12:51:00;99909.28;;;-21.45;33.48
42887;BME280;29032;56.028;92.904;2024-02-16T12:56:02;99925.13;;;-21.48;33.78
42887;BME280;29032;56.028;92.904;2024-02-16T13:01:06;99936.28;;;-21.55;33.16
42887;BME280;29032;56.028;92.904;2024-02-16T13:06:08;99948.81;;;-21.76;32.69
42887;BME280;29032;56.028;92.904;2024-02-16T13:11:10;99953.69;;;-21.99;33.24
42887;BME280;29032;56.028;92.904;2024-02-16T13:16:14;99963.25;;;-22.07;33.01
42887;BME280;29032;56.028;92.904;2024-02-16T13:21:16;99973.88;;;-22.07;33.28
42887;BME280;29032;56.028;92.904;2024-02-16T13:26:18;99990.38;;;-22.01;33.98
42887;BME280;29032;56.028;92.904;2024-02-16T13:31:22;99984.88;;;-21.96;33.83
42887;BME280;29032;56.028;92.904;2024-02-16T13:36:25;99999.94;;;-22.09;34.16
42887;BME280;29032;56.028;92.904;2024-02-16T13:41:27;100002.88;;;-22.02;33.70
42887;BME280;29032;56.028;92.904;2024-02-16T13:46:31;100023.59;;;-21.95;34.12
42887;BME280;29032;56.028;92.904;2024-02-16T13:51:51;100037.81;;;-22.00;33.56
42887;BME280;29032;56.028;92.904;2024-02-16T13:56:54;100054.56;;;-22.08;33.24
42887;BME280;29032;56.028;92.904;2024-02-16T14:01:57;100059.31;;;-21.93;33.70
42887;BME280;29032;56.028;92.904;2024-02-16T14:06:59;100065.16;;;-21.78;33.19
42887;BME280;29032;56.028;92.904;2024-02-16T14:17:23;100088.44;;;-21.75;33.68
42887;BME280;29032;56.028;92.904;2024-02-16T14:22:26;100096.03;;;-21.65;32.78
42887;BME280;29032;56.028;92.904;2024-02-16T14:27:29;100097.78;;;-21.69;33.24
42887;BME280;29032;56.028;92.904;2024-02-16T14:32:32;100112.47;;;-21.72;33.57
42887;BME280;29032;56.028;92.904;2024-02-16T14:37:34;100126.16;;;-21.91;33.89
42887;BME280;29032;56.028;92.904;2024-02-16T14:42:38;100106.56;;;-22.07;33.64
42887;BME280;29032;56.028;92.904;2024-02-16T14:47:41;100140.44;;;-21.74;33.68
42887;BME280;29032;56.028;92.904;2024-02-16T14:52:44;100152.00;;;-21.70;33.69
42887;BME280;29032;56.028;92.904;2024-02-16T14:57:46;100162.19;;;-21.60;32.95
42887;BME280;29032;56.028;92.904;2024-02-16T15:02:50;100170.00;;;-21.55;33.43
42887;BME280;29032;56.028;92.904;2024-02-16T15:07:52;100178.59;;;-21.58;33.09
42887;BME280;29032;56.028;92.904;2024-02-16T15:12:54;100170.25;;;-21.69;33.63
42887;BME280;29032;56.028;92.904;2024-02-16T15:17:58;100178.25;;;-21.77;33.38
42887;BME280;29032;56.028;92.904;2024-02-16T15:23:00;100176.69;;;-21.78;33.27
42887;BME280;29032;56.028;92.904;2024-02-16T15:28:03;100188.59;;;-21.85;33.25
42887;BME280;29032;56.028;92.904;2024-02-16T15:33:06;100201.41;;;-21.87;34.33
42887;BME280;29032;56.028;92.904;2024-02-16T15:38:08;100204.50;;;-21.76;33.52
42887;BME280;29032;56.028;92.904;2024-02-16T15:43:10;100215.28;;;-21.81;32.43
42887;BME280;29032;56.028;92.904;2024-02-16T15:48:14;100213.22;;;-21.75;33.34
42887;BME280;29032;56.028;92.904;2024-02-16T15:53:16;100224.63;;;-21.75;32.98
42887;BME280;29032;56.028;92.904;2024-02-16T15:58:18;100223.84;;;-21.75;33.11
42887;BME280;29032;56.028;92.904;2024-02-16T16:03:22;100230.13;;;-21.80;32.94
42887;BME280;29032;56.028;92.904;2024-02-16T16:08:24;100230.16;;;-21.89;32.37
42887;BME280;29032;56.028;92.904;2024-02-16T16:13:26;100249.53;;;-21.97;32.78
42887;BME280;29032;56.028;92.904;2024-02-16T16:18:30;100256.03;;;-21.86;32.81
42887;BME280;29032;56.028;92.904;2024-02-16T16:23:32;100268.09;;;-21.88;32.87
42887;BME280;29032;56.028;92.904;2024-02-16T16:28:34;100278.56;;;-21.92;33.41
42887;BME280;29032;56.028;92.904;2024-02-16T16:33:38;100267.59;;;-21.82;32.82
42887;BME280;29032;56.028;92.904;2024-02-16T16:38:40;100295.69;;;-21.63;32.22
42887;BME280;29032;56.028;92.904;2024-02-16T16:43:43;100305.06;;;-21.74;31.60
42887;BME280;29032;56.028;92.904;2024-02-16T16:48:46;100306.97;;;-21.84;32.44
42887;BME280;29032;56.028;92.904;2024-02-16T16:59:09;100306.03;;;-21.88;32.52
42887;BME280;29032;56.028;92.904;2024-02-16T17:04:12;100315.09;;;-21.89;32.84
42887;BME280;29032;56.028;92.904;2024-02-16T17:09:15;100320.88;;;-21.78;33.04
42887;BME280;29032;56.028;92.904;2024-02-16T17:14:17;100333.63;;;-21.71;32.27
42887;BME280;29032;56.028;92.904;2024-02-16T17:19:20;100334.78;;;-21.90;32.65
42887;BME280;29032;56.028;92.904;2024-02-16T17:24:23;100336.03;;;-21.96;33.16
42887;BME280;29032;56.028;92.904;2024-02-16T17:29:25;100339.00;;;-21.89;32.60
42887;BME280;29032;56.028;92.904;2024-02-16T17:34:28;100335.53;;;-21.81;32.23
42887;BME280;29032;56.028;92.904;2024-02-16T17:39:30;100341.94;;;-21.82;32.43
42887;BME280;29032;56.028;92.904;2024-02-16T17:44:33;100352.59;;;-21.99;32.81
42887;BME280;29032;56.028;92.904;2024-02-16T17:49:36;100359.78;;;-21.91;32.70
42887;BME280;29032;56.028;92.904;2024-02-16T17:54:38;100359.72;;;-21.73;33.13
42887;BME280;29032;56.028;92.904;2024-02-16T17:59:40;100342.72;;;-21.81;32.69
42887;BME280;29032;56.028;92.904;2024-02-16T18:04:44;100368.78;;;-21.74;31.82
42887;BME280;29032;56.028;92.904;2024-02-16T18:09:47;100386.75;;;-21.80;32.67
42887;BME280;29032;56.028;92.904;2024-02-16T18:14:49;100388.47;;;-21.67;32.55
42887;BME280;29032;56.028;92.904;2024-02-16T18:19:52;100396.00;;;-21.77;32.28
42887;BME280;29032;56.028;92.904;2024-02-16T18:24:55;100406.91;;;-22.14;31.31
42887;BME280;29032;56.028;92.904;2024-02-16T18:29:57;100410.63;;;-22.41;32.40
42887;BME280;29032;56.028;92.904;2024-02-16T18:35:01;100417.19;;;-22.47;33.01
42887;BME280;29032;56.028;92.904;2024-02-16T18:40:03;100424.63;;;-22.57;33.02
42887;BME280;29032;56.028;92.904;2024-02-16T18:45:06;100435.28;;;-22.49;33.07
42887;BME280;29032;56.028;92.904;2024-02-16T18:50:10;100450.59;;;-22.28;32.42
42887;BME280;29032;56.028;92.904;2024-02-16T18:55:12;100453.09;;;-22.23;32.94
42887;BME280;29032;56.028;92.904;2024-02-16T19:00:15;100467.34;;;-22.11;32.42
42887;BME280;29032;56.028;92.904;2024-02-16T19:05:19;100472.66;;;-22.02;32.62
42887;BME280;29032;56.028;92.904;2024-02-16T19:10:21;100483.25;;;-22.02;32.18
42887;BME280;29032;56.028;92.904;2024-02-16T19:15:23;100487.78;;;-22.11;32.16
42887;BME280;29032;56.028;92.904;2024-02-16T19:20:27;100496.44;;;-22.37;31.68
42887;BME280;29032;56.028;92.904;2024-02-16T19:25:29;100510.44;;;-22.53;32.44
42887;BME280;29032;56.028;92.904;2024-02-16T19:30:31;100513.88;;;-22.53;32.35
42887;BME280;29032;56.028;92.904;2024-02-16T19:35:35;100522.16;;;-22.46;33.39
42887;BME280;29032;56.028;92.904;2024-02-16T19:40:37;100539.09;;;-22.24;32.88
42887;BME280;29032;56.028;92.904;2024-02-16T19:45:58;100542.41;;;-22.10;33.65
42887;BME280;29032;56.028;92.904;2024-02-16T19:51:02;100533.81;;;-22.16;34.50
42887;BME280;29032;56.028;92.904;2024-02-16T19:56:04;100544.69;;;-22.34;34.53
42887;BME280;29032;56.028;92.904;2024-02-16T20:01:06;100549.91;;;-22.52;33.83
42887;BME280;29032;56.028;92.904;2024-02-16T20:06:10;100554.88;;;-22.59;33.82
42887;BME280;29032;56.028;92.904;2024-02-16T20:11:12;100570.38;;;-22.83;34.24
42887;BME280;29032;56.028;92.904;2024-02-16T20:16:14;100569.28;;;-22.82;34.37
42887;BME280;29032;56.028;92.904;2024-02-16T20:21:18;100580.56;;;-22.68;35.58
42887;BME280;29032;56.028;92.904;2024-02-16T20:26:23;100583.06;;;-22.63;34.00
42887;BME280;29032;56.028;92.904;2024-02-16T20:31:26;100599.53;;;-22.83;35.06
42887;BME280;29032;56.028;92.904;2024-02-16T20:36:29;100607.81;;;-22.99;35.21
42887;BME280;29032;56.028;92.904;2024-02-16T20:41:31;100613.19;;;-23.12;34.79
42887;BME280;29032;56.028;92.904;2024-02-16T20:46:33;100612.69;;;-23.14;34.82
42887;BME280;29032;56.028;92.904;2024-02-16T20:51:37;100617.81;;;-23.18;35.24
42887;BME280;29032;56.028;92.904;2024-02-16T20:56:39;100609.16;;;-23.10;35.40
42887;BME280;29032;56.028;92.904;2024-02-16T21:01:42;100610.16;;;-23.20;35.14
42887;BME280;29032;56.028;92.904;2024-02-16T21:06:46;100623.59;;;-23.16;35.73
42887;BME280;29032;56.028;92.904;2024-02-16T21:11:48;100615.75;;;-23.21;34.83
42887;BME280;29032;56.028;92.904;2024-02-16T21:16:51;100621.88;;;-23.34;35.10
42887;BME280;29032;56.028;92.904;2024-02-16T21:21:55;100626.81;;;-23.55;34.19
42887;BME280;29032;56.028;92.904;2024-02-16T21:26:57;100626.47;;;-23.76;34.59
42887;BME280;29032;56.028;92.904;2024-02-16T21:31:59;100636.97;;;-23.85;33.93
42887;BME280;29032;56.028;92.904;2024-02-16T21:37:02;100649.13;;;-24.11;33.33
42887;BME280;29032;56.028;92.904;2024-02-16T21:42:05;100650.41;;;-24.09;33.66
42887;BME280;29032;56.028;92.904;2024-02-16T21:47:07;100657.47;;;-24.18;33.04
42887;BME280;29032;56.028;92.904;2024-02-16T21:52:11;100664.31;;;-24.17;33.78
42887;BME280;29032;56.028;92.904;2024-02-16T21:57:13;100669.19;;;-24.24;34.16
42887;BME280;29032;56.028;92.904;2024-02-16T22:02:15;100672.34;;;-24.22;34.61
42887;BME280;29032;56.028;92.904;2024-02-16T22:07:19;100682.63;;;-24.07;34.68
42887;BME280;29032;56.028;92.904;2024-02-16T22:12:21;100690.59;;;-23.93;34.01
42887;BME280;29032;56.028;92.904;2024-02-16T22:17:23;100700.03;;;-23.73;33.73
42887;BME280;29032;56.028;92.904;2024-02-16T22:22:27;100702.38;;;-23.71;33.15
42887;BME280;29032;56.028;92.904;2024-02-16T22:27:29;100713.34;;;-23.78;33.39
42887;BME280;29032;56.028;92.904;2024-02-16T22:32:31;100708.72;;;-23.86;33.64
42887;BME280;29032;56.028;92.904;2024-02-16T22:37:35;100718.84;;;-23.74;33.78
42887;BME280;29032;56.028;92.904;2024-02-16T22:42:37;100727.81;;;-23.62;33.78
42887;BME280;29032;56.028;92.904;2024-02-16T22:47:57;100727.94;;;-23.53;33.33
42887;BME280;29032;56.028;92.904;2024-02-16T22:53:01;100738.72;;;-23.91;33.23
42887;BME280;29032;56.028;92.904;2024-02-16T22:58:04;100752.56;;;-24.13;33.46
42887;BME280;29032;56.028;92.904;2024-02-16T23:03:07;100765.81;;;-24.13;33.88
42887;BME280;29032;56.028;92.904;2024-02-16T23:08:11;100758.38;;;-24.11;33.68
42887;BME280;29032;56.028;92.904;2024-02-16T23:13:13;100773.06;;;-24.05;34.03
42887;BME280;29032;56.028;92.904;2024-02-16T23:18:15;100777.22;;;-23.98;33.85
42887;BME280;29032;56.028;92.904;2024-02-16T23:23:19;100777.56;;;-24.05;33.87
42887;BME280;29032;56.028;92.904;2024-02-16T23:28:21;100801.19;;;-24.09;34.09
42887;BME280;29032;56.028;92.904;2024-02-16T23:33:23;100810.09;;;-24.05;33.88
42887;BME280;29032;56.028;92.904;2024-02-16T23:38:27;100809.31;;;-24.05;34.01
42887;BME280;29032;56.028;92.904;2024-02-16T23:43:29;100817.06;;;-24.09;34.04
42887;BME280;29032;56.028;92.904;2024-02-16T23:48:31;100819.06;;;-24.00;34.04
42887;BME280;29032;56.028;92.904;2024-02-16T23:53:35;100832.03;;;-23.85;34.61
42887;BME280;29032;56.028;92.904;2024-02-16T23:58:37;100843.03;;;-23.78;34.37
